createdAt,value
2019-02-08T00:01:37.891Z,86.56
2019-02-08T00:04:08.596Z,86.63
2019-02-08T00:06:39.052Z,86.61
2019-02-08T00:09:11.010Z,86.73
2019-02-08T00:11:41.437Z,86.39
2019-02-08T00:14:12.496Z,86.35
2019-02-08T00:16:42.933Z,86.73
2019-02-08T00:19:14.430Z,86.74
2019-02-08T00:21:44.902Z,86.46
2019-02-08T00:24:15.357Z,86.45
2019-02-08T00:26:45.830Z,86.50
2019-02-08T00:29:16.273Z,86.30
2019-02-08T00:31:46.721Z,86.71
2019-02-08T00:34:17.610Z,86.27
2019-02-08T00:36:48.014Z,86.51
2019-02-08T00:39:18.502Z,86.58
2019-02-08T00:41:50.086Z,86.66
2019-02-08T00:44:20.526Z,86.29
2019-02-08T00:46:51.388Z,86.45
2019-02-08T00:49:21.851Z,86.15
2019-02-08T00:51:52.323Z,86.04
2019-02-08T00:54:22.752Z,85.83
2019-02-08T00:56:53.567Z,86.07
2019-02-08T00:59:24.030Z,86.00
2019-02-08T01:01:54.467Z,85.85
2019-02-08T01:04:24.939Z,85.70
2019-02-08T01:06:55.368Z,85.44
2019-02-08T01:09:26.146Z,85.61
2019-02-08T01:11:56.612Z,85.39
2019-02-08T01:14:27.044Z,85.16
2019-02-08T01:16:57.520Z,85.10
2019-02-08T01:19:27.957Z,85.04
2019-02-08T01:21:58.392Z,85.02
2019-02-08T01:24:28.854Z,85.11
2019-02-08T01:26:59.692Z,84.85
2019-02-08T01:29:30.276Z,84.61
2019-02-08T01:32:01.037Z,84.62
2019-02-08T01:34:31.465Z,84.46
2019-02-08T01:37:01.929Z,84.60
2019-02-08T01:39:32.767Z,84.58
2019-02-08T01:42:03.349Z,84.77
2019-02-08T01:44:33.784Z,84.59
2019-02-08T01:47:04.325Z,84.60
2019-02-08T01:49:34.804Z,84.45
2019-02-08T01:52:05.241Z,84.50
2019-02-08T01:54:35.712Z,84.60
2019-02-08T01:57:06.491Z,84.27
2019-02-08T01:59:36.924Z,84.24
2019-02-08T02:02:07.827Z,84.52
2019-02-08T02:04:38.664Z,84.83
2019-02-08T02:07:09.146Z,84.08
2019-02-08T02:09:40.216Z,84.60
2019-02-08T02:12:10.648Z,84.45
2019-02-08T02:14:41.112Z,84.81
2019-02-08T02:17:11.540Z,84.71
2019-02-08T02:19:42.050Z,84.51
2019-02-08T02:22:13.547Z,84.75
2019-02-08T02:24:44.560Z,84.44
2019-02-08T02:27:15.016Z,84.83
2019-02-08T02:29:45.757Z,85.23
2019-02-08T02:32:16.232Z,85.06
2019-02-08T02:34:47.000Z,84.86
2019-02-08T02:37:17.427Z,84.61
2019-02-08T02:39:47.887Z,84.67
2019-02-08T02:42:18.317Z,84.68
2019-02-08T02:44:50.147Z,84.80
2019-02-08T02:47:20.584Z,84.70
2019-02-08T02:49:51.038Z,84.30
2019-02-08T02:52:21.981Z,84.32
2019-02-08T02:54:52.684Z,84.51
2019-02-08T02:57:23.160Z,84.37
2019-02-08T02:59:53.596Z,84.24
2019-02-08T03:02:24.385Z,84.52
2019-02-08T03:04:54.995Z,84.28
2019-02-08T03:07:25.422Z,84.06
2019-02-08T03:09:55.896Z,83.84
2019-02-08T03:12:26.332Z,83.70
2019-02-08T03:14:56.758Z,83.95
2019-02-08T03:17:27.212Z,83.78
2019-02-08T03:19:57.636Z,83.52
2019-02-08T03:22:28.107Z,83.78
2019-02-08T03:24:58.869Z,83.66
2019-02-08T03:27:29.300Z,83.46
2019-02-08T03:30:00.290Z,83.79
2019-02-08T03:32:30.744Z,83.36
2019-02-08T03:35:01.216Z,83.53
2019-02-08T03:37:31.646Z,83.84
2019-02-08T03:40:02.090Z,83.47
2019-02-08T03:42:32.629Z,83.69
2019-02-08T03:45:03.047Z,83.85
2019-02-08T03:47:33.512Z,84.09
2019-02-08T03:50:05.416Z,83.94
2019-02-08T03:52:35.848Z,83.81
2019-02-08T03:55:07.281Z,83.77
2019-02-08T03:57:37.709Z,84.09
2019-02-08T04:00:21.906Z,84.03
2019-02-08T04:02:52.328Z,83.70
2019-02-08T04:05:22.755Z,84.07
2019-02-08T04:07:54.194Z,84.62
2019-02-08T04:10:24.831Z,84.10
2019-02-08T04:12:55.291Z,83.92
2019-02-08T04:15:26.436Z,84.06
2019-02-08T04:17:56.867Z,84.73
2019-02-08T04:20:27.437Z,84.68
2019-02-08T04:22:58.053Z,84.59
2019-02-08T04:25:28.525Z,84.56
2019-02-08T04:27:58.953Z,84.31
2019-02-08T04:30:30.144Z,84.30
2019-02-08T04:33:01.314Z,84.93
2019-02-08T04:35:31.835Z,85.41
2019-02-08T04:38:02.315Z,85.10
2019-02-08T04:40:32.738Z,85.33
2019-02-08T04:43:03.162Z,85.43
2019-02-08T04:45:33.613Z,85.88
2019-02-08T04:48:04.135Z,85.73
2019-02-08T04:50:34.611Z,85.38
2019-02-08T04:53:05.077Z,85.35
2019-02-08T04:55:35.504Z,85.33
2019-02-08T04:58:05.959Z,85.36
2019-02-08T05:00:37.242Z,84.91
2019-02-08T05:03:08.057Z,85.23
2019-02-08T05:05:38.484Z,85.18
2019-02-08T05:08:08.916Z,85.64
2019-02-08T05:10:39.362Z,85.60
2019-02-08T05:13:09.798Z,85.47
2019-02-08T05:15:40.267Z,85.54
2019-02-08T05:18:10.695Z,85.33
2019-02-08T05:20:41.124Z,85.92
2019-02-08T05:23:11.581Z,85.90
2019-02-08T05:25:41.999Z,85.71
2019-02-08T05:28:12.474Z,85.66
2019-02-08T05:30:43.052Z,85.99
2019-02-08T05:33:13.808Z,85.70
2019-02-08T05:35:44.265Z,86.00
2019-02-08T05:38:14.692Z,86.00
2019-02-08T05:40:45.168Z,86.23
2019-02-08T05:43:15.594Z,85.79
2019-02-08T05:45:46.024Z,85.80
2019-02-08T05:48:16.762Z,86.13
2019-02-08T05:50:47.186Z,86.45
2019-02-08T05:53:17.700Z,86.11
2019-02-08T05:55:48.130Z,86.32
2019-02-08T05:58:18.933Z,86.09
2019-02-08T06:00:55.041Z,86.21
2019-02-08T06:03:25.579Z,86.35
2019-02-08T06:05:56.420Z,86.46
2019-02-08T06:08:26.850Z,86.23
2019-02-08T06:10:57.623Z,86.08
2019-02-08T06:13:28.157Z,86.15
2019-02-08T06:15:59.285Z,86.06
2019-02-08T06:18:29.741Z,86.01
2019-02-08T06:21:00.177Z,85.98
2019-02-08T06:23:31.912Z,86.04
2019-02-08T06:26:02.344Z,86.05
2019-02-08T06:28:33.076Z,86.48
2019-02-08T06:31:03.529Z,86.46
2019-02-08T06:33:33.952Z,86.22
2019-02-08T06:36:04.520Z,86.32
2019-02-08T06:38:35.368Z,86.50
2019-02-08T06:41:06.135Z,86.27
2019-02-08T06:43:36.592Z,86.19
2019-02-08T06:46:07.390Z,86.37
2019-02-08T06:48:37.854Z,86.41
2019-02-08T06:51:08.310Z,86.29
2019-02-08T06:53:39.407Z,86.26
2019-02-08T06:56:28.857Z,86.27
2019-02-08T06:59:14.242Z,86.11
2019-02-08T07:02:03.938Z,86.09
2019-02-08T07:04:46.748Z,85.96
2019-02-08T07:07:29.235Z,85.94
2019-02-08T07:10:16.516Z,85.88
2019-02-08T07:13:09.289Z,85.79
2019-02-08T07:15:58.650Z,85.26
2019-02-08T07:18:51.164Z,85.52
2019-02-08T07:21:47.007Z,85.35
2019-02-08T07:24:30.418Z,85.52
2019-02-08T07:27:09.112Z,85.35
2019-02-08T07:30:07.305Z,85.56
2019-02-08T07:33:02.480Z,85.20
2019-02-08T07:36:01.180Z,85.29
2019-02-08T07:38:44.167Z,85.08
2019-02-08T07:41:36.966Z,85.30
2019-02-08T07:44:37.398Z,85.07
2019-02-08T07:47:29.944Z,84.79
2019-02-08T07:50:17.666Z,84.80
2019-02-08T07:53:06.239Z,84.77
2019-02-08T07:55:52.300Z,85.02
2019-02-08T07:58:35.445Z,84.84
2019-02-08T08:01:20.187Z,85.01
2019-02-08T08:04:02.091Z,84.79
2019-02-08T08:06:55.362Z,84.47
2019-02-08T08:09:44.744Z,84.34
2019-02-08T08:12:49.863Z,84.58
2019-02-08T08:15:55.514Z,84.52
2019-02-08T08:18:41.215Z,85.06
2019-02-08T08:21:30.988Z,84.86
2019-02-08T08:24:30.283Z,84.99
2019-02-08T08:27:23.668Z,84.84
2019-02-08T08:30:27.789Z,84.53
2019-02-08T08:33:28.671Z,84.58
2019-02-08T08:36:34.013Z,84.23
2019-02-08T08:39:47.775Z,84.61
2019-02-08T08:43:02.429Z,84.35
2019-02-08T08:46:15.444Z,84.58
2019-02-08T08:49:28.556Z,84.15
2019-02-08T08:52:18.714Z,84.57
2019-02-08T08:55:54.148Z,84.29
2019-02-08T08:59:01.691Z,84.16
2019-02-08T09:02:22.251Z,84.12
2019-02-08T09:05:41.276Z,83.98
2019-02-08T09:08:54.452Z,83.71
2019-02-08T09:12:01.392Z,83.88
2019-02-08T09:15:37.687Z,84.18
2019-02-08T09:18:49.094Z,83.61
2019-02-08T09:22:18.905Z,83.67
2019-02-08T09:25:25.376Z,83.80
2019-02-08T09:28:27.975Z,83.16
2019-02-08T09:31:41.697Z,83.54
2019-02-08T09:34:55.232Z,83.56
2019-02-08T09:38:09.573Z,82.79
2019-02-08T09:41:14.265Z,82.42
2019-02-08T09:44:38.080Z,82.58
2019-02-08T09:47:56.949Z,82.53
2019-02-08T09:50:56.299Z,81.39
2019-02-08T09:53:48.676Z,80.78
2019-02-08T09:57:02.106Z,80.52
2019-02-08T10:00:28.804Z,79.44
2019-02-08T10:03:32.788Z,79.41
2019-02-08T10:06:46.716Z,79.27
2019-02-08T10:09:53.645Z,79.44
2019-02-08T10:12:51.960Z,79.84
2019-02-08T10:16:11.948Z,80.23
2019-02-08T10:19:16.160Z,79.91
2019-02-08T10:22:23.513Z,79.35
2019-02-08T10:25:53.189Z,78.69
2019-02-08T10:29:23.476Z,78.86
2019-02-08T10:32:25.103Z,78.75
2019-02-08T10:35:39.867Z,79.68
2019-02-08T10:38:53.390Z,79.57
2019-02-08T10:42:03.470Z,78.97
2019-02-08T10:45:48.215Z,78.81
2019-02-08T10:49:07.886Z,79.15
2019-02-08T10:52:33.696Z,78.69
2019-02-08T10:55:53.235Z,77.31
2019-02-08T10:58:49.566Z,75.38
2019-02-08T11:01:59.248Z,74.32
2019-02-08T11:04:53.111Z,75.39
2019-02-08T11:08:07.202Z,75.13
2019-02-08T11:11:08.878Z,75.17
2019-02-08T11:14:07.906Z,74.71
2019-02-08T11:17:14.158Z,74.14
2019-02-08T11:19:42.859Z,74.17
2019-02-08T11:22:13.298Z,74.31
2019-02-08T11:24:43.722Z,74.66
2019-02-08T11:27:14.195Z,74.86
2019-02-08T11:29:44.663Z,74.54
2019-02-08T11:32:15.131Z,74.65
2019-02-08T11:34:45.555Z,74.16
2019-02-08T11:37:16.412Z,74.15
2019-02-08T11:39:47.201Z,73.76
2019-02-08T11:42:17.628Z,74.34
2019-02-08T11:44:48.115Z,74.47
2019-02-08T11:47:18.548Z,74.79
2019-02-08T11:49:48.977Z,74.07
2019-02-08T11:52:19.470Z,73.78
2019-02-08T11:54:49.911Z,73.52
2019-02-08T11:57:20.452Z,73.57
2019-02-08T11:59:50.864Z,73.34
2019-02-08T12:02:21.289Z,73.51
2019-02-08T12:04:51.748Z,72.99
2019-02-08T12:07:22.175Z,73.07
2019-02-08T12:09:52.646Z,73.42
2019-02-08T12:12:23.460Z,72.96
2019-02-08T12:14:53.938Z,72.05
2019-02-08T12:17:24.358Z,73.11
2019-02-08T12:19:54.782Z,73.48
2019-02-08T12:22:25.236Z,72.64
2019-02-08T12:24:55.972Z,72.52
2019-02-08T12:27:27.676Z,73.42
2019-02-08T12:29:58.119Z,74.23
2019-02-08T12:32:28.540Z,74.46
2019-02-08T12:34:59.372Z,74.79
2019-02-08T12:37:30.107Z,75.16
2019-02-08T12:40:00.985Z,75.82
2019-02-08T12:42:31.417Z,75.17
2019-02-08T12:45:01.854Z,75.05
2019-02-08T12:47:32.304Z,75.43
2019-02-08T12:50:02.753Z,74.58
2019-02-08T12:52:33.546Z,75.12
2019-02-08T12:55:04.272Z,76.07
2019-02-08T12:57:34.696Z,76.23
2019-02-08T13:00:06.703Z,76.08
2019-02-08T13:02:37.127Z,76.20
2019-02-08T13:05:09.059Z,75.95
2019-02-08T13:07:39.484Z,76.00
2019-02-08T13:10:11.312Z,76.13
2019-02-08T13:12:41.772Z,76.02
2019-02-08T13:15:13.047Z,76.12
2019-02-08T13:17:44.941Z,76.03
2019-02-08T13:20:17.287Z,75.82
2019-02-08T13:22:49.170Z,75.46
2019-02-08T13:25:19.941Z,75.61
2019-02-08T13:27:50.483Z,76.85
2019-02-08T13:30:24.203Z,76.14
2019-02-08T13:32:54.637Z,75.73
2019-02-08T13:35:25.401Z,75.99
2019-02-08T13:37:56.343Z,76.18
2019-02-08T13:40:26.943Z,75.67
2019-02-08T13:42:57.533Z,76.21
2019-02-08T13:45:28.318Z,76.21
2019-02-08T13:47:58.754Z,75.37
2019-02-08T13:50:29.693Z,76.28
2019-02-08T13:53:00.206Z,75.95
2019-02-08T13:55:31.031Z,76.14
2019-02-08T13:58:01.629Z,75.37
2019-02-08T14:00:34.353Z,75.70
2019-02-08T14:03:05.523Z,75.68
2019-02-08T14:05:35.951Z,75.66
2019-02-08T14:08:07.360Z,76.52
2019-02-08T14:10:37.792Z,76.03
2019-02-08T14:13:08.550Z,76.41
2019-02-08T14:15:39.372Z,76.42
2019-02-08T14:18:09.813Z,76.65
2019-02-08T14:20:40.319Z,76.71
2019-02-08T14:23:10.747Z,76.42
2019-02-08T14:25:41.214Z,76.45
2019-02-08T14:28:11.653Z,75.69
2019-02-08T14:30:43.181Z,76.53
2019-02-08T14:33:13.635Z,76.32
2019-02-08T14:35:44.372Z,75.93
2019-02-08T14:38:19.360Z,76.48
2019-02-08T14:40:50.127Z,76.92
2019-02-08T14:43:20.611Z,77.00
2019-02-08T14:45:51.395Z,77.49
2019-02-08T14:48:22.026Z,77.34
2019-02-08T14:50:52.483Z,77.17
2019-02-08T14:53:22.935Z,77.66
2019-02-08T14:55:53.731Z,77.49
2019-02-08T14:58:24.168Z,77.53
2019-02-08T15:00:54.579Z,77.56
2019-02-08T15:03:25.032Z,77.49
2019-02-08T15:05:55.458Z,77.75
2019-02-08T15:08:25.928Z,77.76
2019-02-08T15:10:56.722Z,77.82
2019-02-08T15:13:27.530Z,78.17
2019-02-08T15:15:58.295Z,78.06
2019-02-08T15:18:29.192Z,78.39
2019-02-08T15:20:59.637Z,78.58
2019-02-08T15:23:30.164Z,78.60
2019-02-08T15:26:00.588Z,78.89
2019-02-08T15:28:31.021Z,79.29
2019-02-08T15:31:01.468Z,79.16
2019-02-08T15:33:31.894Z,79.42
2019-02-08T15:36:02.746Z,79.22
2019-02-08T15:38:33.182Z,79.33
2019-02-08T15:41:03.606Z,79.02
2019-02-08T15:43:34.068Z,79.25
2019-02-08T15:46:06.609Z,79.44
2019-02-08T15:48:37.230Z,79.56
2019-02-08T15:51:08.585Z,79.64
2019-02-08T15:53:39.311Z,79.53
2019-02-08T15:56:13.073Z,79.76
2019-02-08T15:58:43.504Z,79.68
2019-02-08T16:01:14.403Z,79.86
2019-02-08T16:03:44.839Z,79.93
2019-02-08T16:06:15.855Z,79.95
2019-02-08T16:08:46.308Z,80.16
2019-02-08T16:11:16.755Z,80.00
2019-02-08T16:13:47.220Z,80.19
2019-02-08T16:16:18.023Z,80.34
2019-02-08T16:18:48.864Z,80.52
2019-02-08T16:21:19.535Z,80.46
2019-02-08T16:23:50.081Z,80.56
2019-02-08T16:26:20.544Z,80.64
2019-02-08T16:28:51.710Z,80.91
2019-02-08T16:31:22.135Z,81.12
2019-02-08T16:33:54.959Z,81.06
2019-02-08T16:36:25.759Z,81.19
2019-02-08T16:38:56.290Z,81.33
2019-02-08T16:41:26.712Z,81.61
2019-02-08T16:43:57.138Z,81.53
2019-02-08T16:46:28.091Z,81.40
2019-02-08T16:48:59.383Z,81.52
2019-02-08T16:51:30.223Z,80.95
2019-02-08T16:54:00.674Z,80.93
2019-02-08T16:56:31.112Z,81.29
2019-02-08T16:59:01.650Z,80.92
2019-02-08T17:01:32.071Z,80.76
2019-02-08T17:04:02.832Z,80.75
2019-02-08T17:06:33.253Z,80.32
2019-02-08T17:09:05.206Z,80.37
2019-02-08T17:11:35.639Z,80.45
2019-02-08T17:14:06.399Z,80.20
2019-02-08T17:16:37.254Z,80.03
2019-02-08T17:19:07.679Z,79.59
2019-02-08T17:21:38.107Z,79.24
2019-02-08T17:24:08.583Z,79.41
2019-02-08T17:26:39.029Z,79.43
2019-02-08T17:29:09.903Z,79.83
2019-02-08T17:31:40.640Z,79.49
2019-02-08T17:34:11.461Z,79.47
2019-02-08T17:36:42.935Z,79.43
2019-02-08T17:39:14.806Z,79.13
2019-02-08T17:41:45.424Z,79.03
2019-02-08T17:44:16.475Z,79.00
2019-02-08T17:46:46.945Z,79.26
2019-02-08T17:49:17.653Z,79.42
2019-02-08T17:51:48.078Z,79.15
2019-02-08T17:54:25.518Z,79.18
2019-02-08T17:56:52.419Z,78.37
2019-02-08T17:59:23.143Z,78.90
2019-02-08T18:01:53.604Z,79.04
2019-02-08T18:04:27.208Z,78.74
2019-02-08T18:06:57.792Z,78.63
2019-02-08T18:09:28.541Z,78.78
2019-02-08T18:11:58.966Z,79.05
2019-02-08T18:14:29.420Z,79.17
2019-02-08T18:16:59.858Z,79.04
2019-02-08T18:19:30.726Z,78.65
2019-02-08T18:22:01.146Z,78.89
2019-02-08T18:24:31.572Z,78.98
2019-02-08T18:27:02.404Z,78.87
2019-02-08T18:29:33.225Z,78.48
2019-02-08T18:32:03.715Z,78.67
2019-02-08T18:34:34.145Z,78.60
2019-02-08T18:37:05.054Z,78.47
2019-02-08T18:39:35.519Z,78.25
2019-02-08T18:42:06.018Z,78.39
2019-02-08T18:44:37.260Z,78.41
2019-02-08T18:47:07.712Z,77.97
2019-02-08T18:49:38.929Z,78.31
2019-02-08T18:52:09.738Z,77.83
2019-02-08T18:54:40.579Z,77.35
2019-02-08T18:57:11.003Z,77.82
2019-02-08T18:59:41.544Z,78.00
2019-02-08T19:02:11.976Z,78.00
2019-02-08T19:04:42.879Z,77.64
2019-02-08T19:07:13.618Z,77.33
2019-02-08T19:09:44.048Z,77.29
2019-02-08T19:12:14.543Z,77.75
2019-02-08T19:14:44.979Z,77.95
2019-02-08T19:17:15.415Z,77.62
2019-02-08T19:19:45.867Z,77.25
2019-02-08T19:22:18.852Z,77.50
2019-02-08T19:24:49.355Z,77.41
2019-02-08T19:27:20.576Z,77.97
2019-02-08T19:29:51.430Z,77.52
2019-02-08T19:32:22.067Z,77.12
2019-02-08T19:34:52.528Z,77.01
2019-02-08T19:37:23.412Z,76.90
2019-02-08T19:39:53.839Z,77.02
2019-02-08T19:42:25.365Z,77.12
2019-02-08T19:44:56.136Z,76.74
2019-02-08T19:47:26.559Z,76.95
2019-02-08T19:49:57.585Z,76.58
2019-02-08T19:52:30.019Z,77.12
2019-02-08T19:55:00.487Z,77.32
2019-02-08T19:57:30.975Z,77.64
2019-02-08T20:00:01.350Z,77.14
2019-02-08T20:02:33.360Z,77.02
2019-02-08T20:05:05.224Z,76.85
2019-02-08T20:07:35.708Z,76.27
2019-02-08T20:10:09.368Z,76.37
2019-02-08T20:12:39.900Z,76.15
2019-02-08T20:15:14.065Z,76.35
2019-02-08T20:17:44.614Z,75.58
2019-02-08T20:20:16.132Z,75.48
2019-02-08T20:22:48.367Z,75.64
2019-02-08T20:25:24.534Z,76.13
2019-02-08T20:27:55.553Z,75.85
2019-02-08T20:30:26.814Z,76.18
2019-02-08T20:32:57.882Z,76.17
2019-02-08T20:35:29.757Z,75.88
2019-02-08T20:38:00.760Z,76.13
2019-02-08T20:40:39.476Z,75.67
2019-02-08T20:43:09.939Z,76.04
2019-02-08T20:45:40.848Z,75.20
2019-02-08T20:48:16.774Z,75.37
2019-02-08T20:50:47.687Z,75.65
2019-02-08T20:53:22.705Z,75.90
2019-02-08T20:55:56.441Z,75.34
2019-02-08T20:58:27.191Z,75.45
2019-02-08T21:00:57.638Z,75.65
2019-02-08T21:03:28.357Z,75.60
2019-02-08T21:05:58.836Z,74.92
2019-02-08T21:08:29.843Z,75.47
2019-02-08T21:11:00.420Z,75.80
2019-02-08T21:13:32.072Z,75.39
2019-02-08T21:16:02.505Z,74.99
2019-02-08T21:18:32.977Z,75.29
2019-02-08T21:21:03.409Z,75.54
2019-02-08T21:23:34.043Z,75.57
2019-02-08T21:26:05.445Z,75.33
2019-02-08T21:28:36.439Z,75.41
2019-02-08T21:31:07.395Z,75.84
2019-02-08T21:33:38.235Z,75.70
2019-02-08T21:36:08.728Z,75.72
2019-02-08T21:38:39.164Z,76.03
2019-02-08T21:41:10.274Z,75.60
2019-02-08T21:43:40.743Z,75.57
2019-02-08T21:46:11.176Z,75.24
2019-02-08T21:48:41.632Z,75.52
2019-02-08T21:51:12.364Z,75.20
2019-02-08T21:53:42.987Z,75.40
2019-02-08T21:56:13.740Z,75.55
2019-02-08T21:58:44.178Z,75.07
2019-02-08T22:01:14.692Z,75.43
2019-02-08T22:03:45.177Z,75.16
2019-02-08T22:06:15.652Z,75.33
2019-02-08T22:08:46.078Z,75.32
2019-02-08T22:11:20.664Z,75.25
2019-02-08T22:13:51.182Z,75.48
2019-02-08T22:16:21.629Z,75.47
2019-02-08T22:18:52.502Z,75.38
2019-02-08T22:21:25.735Z,74.78
2019-02-08T22:23:56.332Z,74.99
2019-02-08T22:26:29.790Z,74.67
2019-02-08T22:29:00.223Z,75.23
2019-02-08T22:31:31.036Z,74.64
2019-02-08T22:34:01.543Z,74.87
2019-02-08T22:36:32.003Z,75.19
2019-02-08T22:39:02.449Z,74.99
2019-02-08T22:41:32.926Z,74.90
2019-02-08T22:44:07.998Z,75.05
2019-02-08T22:46:38.893Z,74.63
2019-02-08T22:49:09.396Z,74.76
2019-02-08T22:51:39.859Z,74.45
2019-02-08T22:54:10.342Z,74.45
2019-02-08T22:56:41.451Z,74.46
2019-02-08T22:59:11.966Z,74.26
2019-02-08T23:01:47.892Z,73.85
2019-02-08T23:04:18.782Z,73.92
2019-02-08T23:06:49.206Z,74.10
2019-02-08T23:09:21.664Z,74.12
2019-02-08T23:11:52.180Z,74.70
2019-02-08T23:14:22.705Z,74.43
2019-02-08T23:16:53.173Z,74.51
2019-02-08T23:19:23.648Z,74.58
2019-02-08T23:21:55.221Z,74.59
2019-02-08T23:24:25.819Z,74.37
2019-02-08T23:26:56.244Z,74.64
2019-02-08T23:29:30.288Z,74.40
2019-02-08T23:31:59.218Z,74.28
2019-02-08T23:34:30.831Z,74.04
2019-02-08T23:37:01.285Z,74.05
2019-02-08T23:39:32.058Z,74.25
2019-02-08T23:42:02.534Z,74.40
2019-02-08T23:44:32.955Z,74.01
2019-02-08T23:47:03.384Z,74.62
2019-02-08T23:49:34.271Z,74.78
2019-02-08T23:52:04.745Z,74.61
2019-02-08T23:54:35.203Z,74.46
2019-02-08T23:57:05.718Z,74.48
2019-02-08T23:59:38.254Z,74.26
